createdAt,value
2023-04-13T00:01:16.608Z,2.97
2023-04-13T00:03:46.002Z,2.50
2023-04-13T00:06:13.444Z,2.57
2023-04-13T00:08:42.935Z,3.20
2023-04-13T00:11:11.029Z,2.30
2023-04-13T00:13:42.884Z,2.00
2023-04-13T00:16:11.130Z,4.50
2023-04-13T00:18:38.441Z,2.17
2023-04-13T00:21:06.206Z,2.40
2023-04-13T00:23:36.171Z,4.30
2023-04-13T00:26:03.736Z,7.63
2023-04-13T00:28:31.119Z,4.53
2023-04-13T00:30:58.428Z,4.97
2023-04-13T00:33:25.840Z,3.90
2023-04-13T00:35:53.017Z,3.60
2023-04-13T00:38:20.285Z,2.70
2023-04-13T00:40:47.476Z,3.30
2023-04-13T00:43:15.058Z,2.80
2023-04-13T00:45:42.778Z,3.13
2023-04-13T00:48:11.151Z,3.27
2023-04-13T00:50:39.908Z,3.50
2023-04-13T00:53:10.747Z,3.10
2023-04-13T00:55:39.554Z,2.77
2023-04-13T00:58:07.982Z,3.07
2023-04-13T01:00:43.232Z,3.13
2023-04-13T01:03:12.468Z,2.70
2023-04-13T01:06:26.342Z,2.30
2023-04-13T01:08:58.952Z,6.73
2023-04-13T01:11:30.934Z,2.37
2023-04-13T01:14:19.843Z,2.33
2023-04-13T01:16:54.241Z,3.37
2023-04-13T01:19:29.243Z,3.47
2023-04-13T01:21:57.983Z,2.50
2023-04-13T01:24:55.905Z,1.90
2023-04-13T01:27:47.749Z,2.30
2023-04-13T01:30:18.273Z,2.23
2023-04-13T01:32:46.022Z,3.60
2023-04-13T01:35:14.081Z,4.10
2023-04-13T01:37:43.343Z,2.53
2023-04-13T01:40:11.480Z,1.90
2023-04-13T01:42:39.880Z,2.27
2023-04-13T01:45:13.623Z,2.20
2023-04-13T01:47:48.432Z,2.93
2023-04-13T01:50:41.080Z,2.50
2023-04-13T01:53:15.600Z,3.20
2023-04-13T01:55:44.548Z,4.83
2023-04-13T01:58:13.560Z,2.17
2023-04-13T02:00:42.384Z,2.97
2023-04-13T02:03:11.084Z,2.77
2023-04-13T02:05:40.310Z,3.53
2023-04-13T02:08:10.557Z,2.53
2023-04-13T02:10:38.063Z,2.67
2023-04-13T02:13:05.532Z,1.70
2023-04-13T02:15:35.959Z,2.37
2023-04-13T02:18:06.985Z,3.93
2023-04-13T02:20:45.574Z,2.83
2023-04-13T02:23:16.113Z,2.27
2023-04-13T02:25:47.640Z,2.60
2023-04-13T02:28:16.183Z,2.30
2023-04-13T02:30:43.482Z,2.73
2023-04-13T02:33:10.694Z,3.63
2023-04-13T02:35:39.126Z,2.13
2023-04-13T02:38:07.088Z,3.73
2023-04-13T02:40:34.337Z,2.93
2023-04-13T02:43:01.632Z,2.30
2023-04-13T02:45:28.932Z,2.30
2023-04-13T02:47:57.000Z,2.70
2023-04-13T02:50:24.309Z,2.80
2023-04-13T02:52:53.381Z,2.17
2023-04-13T02:55:20.986Z,3.90
2023-04-13T02:57:49.852Z,2.60
2023-04-13T03:00:17.398Z,2.73
2023-04-13T03:02:44.891Z,5.70
2023-04-13T03:05:13.007Z,4.60
2023-04-13T03:07:40.290Z,3.03
2023-04-13T03:10:09.049Z,2.60
2023-04-13T03:12:36.967Z,4.37
2023-04-13T03:15:07.766Z,3.60
2023-04-13T03:17:35.133Z,3.00
2023-04-13T03:20:02.320Z,4.00
2023-04-13T03:22:30.589Z,2.60
2023-04-13T03:25:00.684Z,6.40
2023-04-13T03:27:27.863Z,9.50
2023-04-13T03:29:55.061Z,2.63
2023-04-13T03:32:22.371Z,5.50
2023-04-13T03:34:49.726Z,3.53
2023-04-13T03:37:17.056Z,6.47
2023-04-13T03:39:44.533Z,3.33
2023-04-13T03:42:11.947Z,4.37
2023-04-13T03:44:39.156Z,4.17
2023-04-13T03:47:06.737Z,6.50
2023-04-13T03:49:34.660Z,4.87
2023-04-13T03:52:01.907Z,2.73
2023-04-13T03:54:29.107Z,4.73
2023-04-13T03:56:58.091Z,4.97
2023-04-13T03:59:25.364Z,3.80
2023-04-13T04:01:52.584Z,4.67
2023-04-13T04:04:19.844Z,3.73
2023-04-13T04:06:47.152Z,3.00
2023-04-13T04:09:14.328Z,4.53
2023-04-13T04:11:41.569Z,2.87
2023-04-13T04:14:08.793Z,7.23
2023-04-13T04:16:36.933Z,3.40
2023-04-13T04:19:04.157Z,6.43
2023-04-13T04:21:34.419Z,4.03
2023-04-13T04:24:06.382Z,4.37
2023-04-13T04:26:34.608Z,4.90
2023-04-13T04:29:04.542Z,3.90
2023-04-13T04:31:37.027Z,4.03
2023-04-13T04:34:04.880Z,3.60
2023-04-13T04:36:32.093Z,6.23
2023-04-13T04:39:02.535Z,5.50
2023-04-13T04:41:31.384Z,6.93
2023-04-13T04:44:03.311Z,4.70
2023-04-13T04:46:30.494Z,4.20
2023-04-13T04:49:01.126Z,9.13
2023-04-13T04:51:28.825Z,6.83
2023-04-13T04:53:58.774Z,2.60
2023-04-13T04:56:26.152Z,3.10
2023-04-13T04:58:53.570Z,2.93
2023-04-13T05:01:26.525Z,4.37
2023-04-13T05:03:54.179Z,2.20
2023-04-13T05:06:21.404Z,2.30
2023-04-13T05:08:48.665Z,1.97
2023-04-13T05:11:15.869Z,1.70
2023-04-13T05:13:43.070Z,1.80
2023-04-13T05:16:10.808Z,1.63
2023-04-13T05:18:46.166Z,1.50
2023-04-13T05:21:14.610Z,1.40
2023-04-13T05:23:43.011Z,1.30
2023-04-13T05:26:12.304Z,1.63
2023-04-13T05:28:39.924Z,1.37
2023-04-13T05:31:08.966Z,1.57
2023-04-13T05:33:36.201Z,6.73
2023-04-13T05:36:04.612Z,2.13
2023-04-13T05:38:33.122Z,1.20
2023-04-13T05:41:01.036Z,5.23
2023-04-13T05:43:28.280Z,1.50
2023-04-13T05:45:55.935Z,2.13
2023-04-13T05:48:23.267Z,1.33
2023-04-13T05:50:50.444Z,6.37
2023-04-13T05:53:18.445Z,1.70
2023-04-13T05:55:48.039Z,1.73
2023-04-13T05:58:15.651Z,1.37
2023-04-13T06:00:43.226Z,1.60
2023-04-13T06:03:11.127Z,1.53
2023-04-13T06:05:38.982Z,1.50
2023-04-13T06:08:06.249Z,1.80
2023-04-13T06:10:33.460Z,6.03
2023-04-13T06:13:00.739Z,1.30
2023-04-13T06:15:28.132Z,1.43
2023-04-13T06:17:55.575Z,3.07
2023-04-13T06:20:23.084Z,2.53
2023-04-13T06:22:50.272Z,3.60
2023-04-13T06:25:17.593Z,3.13
2023-04-13T06:27:47.301Z,3.40
2023-04-13T06:30:14.917Z,3.70
2023-04-13T06:32:42.143Z,3.27
2023-04-13T06:35:10.937Z,2.07
2023-04-13T06:37:39.037Z,2.60
2023-04-13T06:40:10.074Z,2.27
2023-04-13T06:42:37.297Z,7.67
2023-04-13T06:45:04.962Z,1.60
2023-04-13T06:47:32.357Z,2.00
2023-04-13T06:50:06.591Z,1.80
2023-04-13T06:52:34.737Z,2.23
2023-04-13T06:55:02.409Z,1.00
2023-04-13T06:57:30.378Z,1.20
2023-04-13T06:59:58.107Z,1.03
2023-04-13T07:02:26.943Z,1.40
2023-04-13T07:04:54.439Z,5.03
2023-04-13T07:07:21.764Z,2.23
2023-04-13T07:09:49.008Z,1.80
2023-04-13T07:12:16.249Z,2.90
2023-04-13T07:14:43.630Z,3.07
2023-04-13T07:17:13.144Z,2.33
2023-04-13T07:19:46.635Z,1.83
2023-04-13T07:22:14.540Z,2.67
2023-04-13T07:24:42.414Z,1.97
2023-04-13T07:27:09.633Z,2.30
2023-04-13T07:29:37.016Z,2.50
2023-04-13T07:32:06.893Z,2.50
2023-04-13T07:34:36.050Z,2.00
2023-04-13T07:37:03.284Z,3.03
2023-04-13T07:39:30.562Z,2.53
2023-04-13T07:41:57.875Z,2.70
2023-04-13T07:44:25.180Z,3.50
2023-04-13T07:46:52.407Z,2.53
2023-04-13T07:49:19.745Z,3.10
2023-04-13T07:51:46.945Z,2.83
2023-04-13T07:54:16.605Z,3.17
2023-04-13T07:56:44.182Z,2.27
2023-04-13T07:59:11.652Z,2.53
2023-04-13T08:01:39.349Z,5.40
2023-04-13T08:04:07.174Z,2.70
2023-04-13T08:06:38.318Z,3.03
2023-04-13T08:09:05.530Z,2.80
2023-04-13T08:11:32.919Z,2.10
2023-04-13T08:14:00.162Z,2.67
2023-04-13T08:16:27.434Z,2.10
2023-04-13T08:18:54.783Z,1.67
2023-04-13T08:21:21.955Z,2.40
2023-04-13T08:23:49.233Z,1.47
2023-04-13T08:26:21.498Z,1.30
2023-04-13T08:28:49.644Z,4.10
2023-04-13T08:31:17.085Z,2.00
2023-04-13T08:33:44.344Z,2.50
2023-04-13T08:36:11.666Z,2.80
2023-04-13T08:38:38.975Z,3.00
2023-04-13T08:41:09.400Z,5.70
2023-04-13T08:43:36.752Z,4.03
2023-04-13T08:46:06.000Z,3.67
2023-04-13T08:48:53.567Z,2.90
2023-04-13T08:51:29.480Z,3.47
2023-04-13T08:53:56.956Z,2.30
2023-04-13T08:56:37.684Z,2.60
2023-04-13T08:59:12.046Z,2.23
2023-04-13T09:01:39.969Z,1.97
2023-04-13T09:04:10.568Z,2.40
2023-04-13T09:06:41.451Z,1.67
2023-04-13T09:09:16.433Z,2.23
2023-04-13T09:11:46.763Z,1.10
2023-04-13T09:14:18.417Z,1.53
2023-04-13T09:16:46.782Z,1.63
2023-04-13T09:19:14.087Z,0.70
2023-04-13T09:21:43.730Z,2.00
2023-04-13T09:24:12.573Z,1.10
2023-04-13T09:26:47.752Z,1.37
2023-04-13T09:29:19.317Z,1.43
2023-04-13T09:31:47.665Z,2.40
2023-04-13T09:34:25.457Z,1.33
2023-04-13T09:36:54.700Z,1.10
2023-04-13T09:39:29.489Z,1.10
2023-04-13T09:41:58.231Z,1.13
2023-04-13T09:44:28.604Z,0.90
2023-04-13T09:47:08.792Z,0.80
2023-04-13T09:49:43.251Z,0.57
2023-04-13T09:52:20.278Z,0.70
2023-04-13T09:55:15.723Z,0.60
2023-04-13T09:57:43.325Z,1.47
2023-04-13T10:00:23.641Z,0.70
2023-04-13T10:02:52.638Z,0.70
2023-04-13T10:05:20.219Z,0.60
2023-04-13T10:07:48.819Z,1.00
2023-04-13T10:10:17.101Z,1.60
2023-04-13T10:12:53.552Z,0.63
2023-04-13T10:15:54.509Z,1.43
2023-04-13T10:18:32.523Z,0.60
2023-04-13T10:21:01.901Z,0.70
2023-04-13T10:23:31.809Z,0.50
2023-04-13T10:26:00.840Z,0.50
2023-04-13T10:28:28.510Z,0.50
2023-04-13T10:30:55.840Z,0.40
2023-04-13T10:33:23.147Z,0.50
2023-04-13T10:35:58.454Z,0.67
2023-04-13T10:38:26.298Z,0.40
2023-04-13T10:40:53.938Z,0.50
2023-04-13T10:43:30.777Z,1.20
2023-04-13T10:46:08.215Z,0.70
2023-04-13T10:48:36.426Z,0.60
2023-04-13T10:51:03.931Z,0.70
2023-04-13T10:53:32.867Z,0.80
2023-04-13T10:56:00.545Z,0.80
2023-04-13T10:58:31.943Z,0.70
2023-04-13T11:01:00.242Z,2.30
2023-04-13T11:03:28.752Z,0.90
2023-04-13T11:05:58.441Z,0.90
2023-04-13T11:08:28.111Z,0.70
2023-04-13T11:10:56.956Z,1.13
2023-04-13T11:13:29.479Z,0.80
2023-04-13T11:16:05.403Z,0.67
2023-04-13T11:18:32.918Z,0.57
2023-04-13T11:21:03.947Z,0.50
2023-04-13T11:23:34.878Z,0.60
2023-04-13T11:26:04.658Z,0.93
2023-04-13T11:28:43.706Z,0.67
2023-04-13T11:31:12.008Z,0.57
2023-04-13T11:33:40.741Z,0.87
2023-04-13T11:36:09.911Z,0.60
2023-04-13T11:38:39.733Z,0.50
2023-04-13T11:43:37.338Z,0.60
2023-04-13T11:46:06.037Z,2.47
2023-04-13T11:48:33.462Z,0.70
2023-04-13T11:51:00.866Z,0.67
2023-04-13T11:53:28.354Z,0.93
2023-04-13T11:55:56.225Z,0.70
2023-04-13T11:58:24.422Z,0.60
2023-04-13T12:00:54.507Z,0.67
2023-04-13T12:06:01.759Z,1.17
2023-04-13T12:08:36.766Z,0.67
2023-04-13T12:11:36.655Z,2.10
2023-04-13T12:14:08.894Z,0.70
2023-04-13T12:19:12.782Z,0.60
2023-04-13T12:21:52.687Z,0.50
2023-04-13T12:24:20.435Z,0.50
2023-04-13T12:29:17.886Z,0.60
2023-04-13T12:31:45.601Z,0.50
2023-04-13T12:34:12.940Z,0.40
2023-04-13T12:36:40.280Z,0.50
2023-04-13T12:39:08.177Z,0.40
2023-04-13T12:41:35.471Z,0.40
2023-04-13T12:44:02.769Z,0.50
2023-04-13T12:46:30.222Z,0.50
2023-04-13T12:48:57.669Z,0.50
2023-04-13T12:51:26.238Z,3.50
2023-04-13T12:53:53.449Z,0.57
2023-04-13T12:56:20.646Z,0.50
2023-04-13T12:58:48.572Z,0.63
2023-04-13T13:01:15.856Z,0.40
2023-04-13T13:03:44.185Z,0.40
2023-04-13T13:06:11.446Z,0.40
2023-04-13T13:08:40.411Z,0.60
2023-04-13T13:11:11.227Z,0.50
2023-04-13T13:13:38.439Z,0.73
2023-04-13T13:16:06.274Z,0.50
2023-04-13T13:18:49.178Z,0.50
2023-04-13T13:21:18.505Z,0.57
2023-04-13T13:23:46.169Z,1.63
2023-04-13T13:26:23.995Z,1.70
2023-04-13T13:28:53.502Z,0.80
2023-04-13T13:31:21.100Z,1.07
2023-04-13T13:33:48.466Z,1.27
2023-04-13T13:36:16.227Z,1.07
2023-04-13T13:38:43.985Z,1.20
2023-04-13T13:41:11.536Z,0.80
2023-04-13T13:43:39.532Z,0.50
2023-04-13T13:46:07.064Z,0.40
2023-04-13T13:48:34.332Z,0.50
2023-04-13T13:51:02.224Z,2.60
2023-04-13T13:53:29.540Z,0.50
2023-04-13T13:55:56.820Z,0.50
2023-04-13T13:58:24.060Z,0.50
2023-04-13T14:00:51.335Z,3.00
2023-04-13T14:03:18.833Z,0.70
2023-04-13T14:05:46.177Z,0.80
2023-04-13T14:08:13.574Z,1.07
2023-04-13T14:10:42.910Z,0.90
2023-04-13T14:13:10.176Z,0.80
2023-04-13T14:15:37.481Z,1.53
2023-04-13T14:18:09.948Z,0.90
2023-04-13T14:20:39.794Z,0.80
2023-04-13T14:23:09.314Z,0.90
2023-04-13T14:25:37.562Z,0.90
2023-04-13T14:28:04.841Z,1.10
2023-04-13T14:30:32.121Z,1.00
2023-04-13T14:32:59.360Z,0.60
2023-04-13T14:35:26.743Z,0.70
2023-04-13T14:37:54.565Z,0.60
2023-04-13T14:40:22.745Z,1.03
2023-04-13T14:42:52.882Z,0.60
2023-04-13T14:45:21.203Z,0.60
2023-04-13T14:47:48.905Z,0.63
2023-04-13T14:50:17.105Z,1.13
2023-04-13T14:52:45.925Z,0.80
2023-04-13T14:55:14.278Z,0.90
2023-04-13T14:57:42.001Z,0.80
2023-04-13T15:00:22.082Z,1.27
2023-04-13T15:02:52.630Z,1.10
2023-04-13T15:05:20.833Z,1.10
2023-04-13T15:07:48.690Z,1.10
2023-04-13T15:10:16.358Z,1.57
2023-04-13T15:12:43.809Z,1.30
2023-04-13T15:15:11.379Z,1.50
2023-04-13T15:17:38.612Z,1.30
2023-04-13T15:20:07.863Z,1.90
2023-04-13T15:22:36.458Z,2.90
2023-04-13T15:25:04.214Z,1.40
2023-04-13T15:27:31.491Z,1.17
2023-04-13T15:30:03.719Z,1.20
2023-04-13T15:32:34.311Z,2.10
2023-04-13T15:35:02.025Z,1.80
2023-04-13T15:37:29.275Z,1.47
2023-04-13T15:39:56.860Z,1.57
2023-04-13T15:42:26.042Z,1.57
2023-04-13T15:44:54.802Z,1.07
2023-04-13T15:47:22.924Z,0.70
2023-04-13T15:49:50.235Z,0.70
2023-04-13T15:52:17.495Z,1.27
2023-04-13T15:54:44.711Z,2.07
2023-04-13T15:57:12.431Z,1.40
2023-04-13T15:59:40.321Z,1.43
2023-04-13T16:02:08.103Z,1.90
2023-04-13T16:04:35.547Z,1.63
2023-04-13T16:07:13.063Z,1.73
2023-04-13T16:09:43.978Z,1.23
2023-04-13T16:12:11.907Z,1.33
2023-04-13T16:14:39.480Z,1.90
2023-04-13T16:17:07.898Z,2.43
2023-04-13T16:19:35.791Z,0.70
2023-04-13T16:22:07.447Z,1.47
2023-04-13T16:24:34.638Z,0.80
2023-04-13T16:27:02.437Z,0.90
2023-04-13T16:29:29.830Z,1.20
2023-04-13T16:31:57.420Z,1.10
2023-04-13T16:34:26.656Z,1.17
2023-04-13T16:36:54.274Z,1.47
2023-04-13T16:39:22.079Z,1.17
2023-04-13T16:41:49.329Z,0.93
2023-04-13T16:44:16.808Z,1.30
2023-04-13T16:46:44.044Z,1.10
2023-04-13T16:49:11.449Z,2.10
2023-04-13T16:51:38.672Z,1.00
2023-04-13T16:54:11.749Z,1.00
2023-04-13T16:56:39.217Z,1.00
2023-04-13T16:59:06.794Z,1.10
2023-04-13T17:01:36.099Z,2.10
2023-04-13T17:04:05.524Z,0.60
2023-04-13T17:06:36.038Z,0.80
2023-04-13T17:09:03.599Z,0.83
2023-04-13T17:11:30.979Z,2.80
2023-04-13T17:13:58.625Z,1.30
2023-04-13T17:16:29.369Z,2.83
2023-04-13T17:18:57.256Z,2.00
2023-04-13T17:21:24.754Z,1.33
2023-04-13T17:23:51.997Z,1.53
2023-04-13T17:26:19.329Z,1.83
2023-04-13T17:28:46.665Z,1.50
2023-04-13T17:31:14.468Z,1.30
2023-04-13T17:33:41.843Z,1.47
2023-04-13T17:36:09.125Z,1.33
2023-04-13T17:38:36.378Z,1.20
2023-04-13T17:41:04.027Z,1.50
2023-04-13T17:43:31.538Z,1.07
2023-04-13T17:45:59.152Z,1.07
2023-04-13T17:48:26.515Z,0.90
2023-04-13T17:50:53.731Z,1.07
2023-04-13T17:53:21.078Z,1.73
2023-04-13T17:55:48.292Z,0.97
2023-04-13T17:58:15.574Z,1.90
2023-04-13T18:00:42.868Z,3.20
2023-04-13T18:03:11.735Z,2.33
2023-04-13T18:05:44.445Z,1.70
2023-04-13T18:08:11.630Z,2.17
2023-04-13T18:10:38.866Z,1.97
2023-04-13T18:13:06.083Z,2.30
2023-04-13T18:15:33.365Z,3.03
2023-04-13T18:18:00.691Z,3.23
2023-04-13T18:20:28.005Z,4.57
2023-04-13T18:22:55.426Z,3.10
2023-04-13T18:25:22.633Z,4.30
2023-04-13T18:27:49.816Z,2.67
2023-04-13T18:30:17.373Z,2.70
2023-04-13T18:32:44.684Z,2.30
2023-04-13T18:35:13.112Z,1.80
2023-04-13T18:37:41.058Z,1.60
2023-04-13T18:40:09.449Z,1.50
2023-04-13T18:42:40.077Z,2.13
2023-04-13T18:45:07.878Z,1.60
2023-04-13T18:47:35.378Z,1.73
2023-04-13T18:50:02.966Z,2.57
2023-04-13T18:52:30.304Z,2.10
2023-04-13T18:54:57.484Z,3.60
2023-04-13T18:57:24.956Z,4.70
2023-04-13T18:59:52.143Z,1.40
2023-04-13T19:02:19.827Z,2.10
2023-04-13T19:04:47.323Z,1.17
2023-04-13T19:07:16.114Z,4.70
2023-04-13T19:09:43.705Z,1.63
2023-04-13T19:12:11.358Z,0.97
2023-04-13T19:14:38.856Z,1.67
2023-04-13T19:17:06.047Z,1.20
2023-04-13T19:19:33.267Z,1.27
2023-04-13T19:22:00.686Z,0.50
2023-04-13T19:24:27.935Z,0.40
2023-04-13T19:26:56.414Z,0.50
2023-04-13T19:29:26.994Z,0.50
2023-04-13T19:31:54.874Z,0.50
2023-04-13T19:34:22.456Z,0.50
2023-04-13T19:36:49.696Z,0.50
2023-04-13T19:39:16.912Z,0.50
2023-04-13T19:41:44.331Z,0.50
2023-04-13T19:44:13.563Z,0.40
2023-04-13T19:46:40.858Z,0.50
2023-04-13T19:49:08.228Z,0.50
2023-04-13T19:51:36.251Z,0.50
2023-04-13T19:54:05.009Z,2.10
2023-04-13T19:56:36.525Z,0.73
2023-04-13T19:59:05.188Z,0.60
2023-04-13T20:01:33.889Z,0.60
2023-04-13T20:04:03.960Z,0.70
2023-04-13T20:06:33.119Z,1.00
2023-04-13T20:09:14.423Z,1.03
2023-04-13T20:11:41.984Z,0.90
2023-04-13T20:14:11.599Z,1.07
2023-04-13T20:16:39.045Z,0.70
2023-04-13T20:19:07.016Z,0.50
2023-04-13T20:21:34.579Z,2.40
2023-04-13T20:24:02.918Z,0.70
2023-04-13T20:26:31.638Z,0.60
2023-04-13T20:29:04.436Z,0.70
2023-04-13T20:31:33.277Z,1.53
2023-04-13T20:34:03.094Z,0.90
2023-04-13T20:36:31.434Z,0.93
2023-04-13T20:39:01.536Z,1.57
2023-04-13T20:41:32.175Z,2.93
2023-04-13T20:44:00.427Z,0.90
2023-04-13T20:46:34.597Z,1.00
2023-04-13T20:49:04.492Z,0.80
2023-04-13T20:51:33.486Z,0.80
2023-04-13T20:54:03.112Z,0.90
2023-04-13T20:56:30.502Z,2.60
2023-04-13T20:58:58.365Z,1.20
2023-04-13T21:01:25.684Z,1.27
2023-04-13T21:03:53.361Z,1.20
2023-04-13T21:06:22.870Z,1.33
2023-04-13T21:08:50.244Z,0.80
2023-04-13T21:11:17.457Z,0.60
2023-04-13T21:13:44.692Z,1.07
2023-04-13T21:16:12.300Z,1.90
2023-04-13T21:18:41.592Z,0.70
2023-04-13T21:21:09.116Z,0.80
2023-04-13T21:23:37.409Z,0.80
2023-04-13T21:26:05.392Z,0.80
2023-04-13T21:28:32.601Z,0.90
2023-04-13T21:30:59.815Z,0.60
2023-04-13T21:33:27.014Z,0.70
2023-04-13T21:35:54.578Z,2.67
2023-04-13T21:38:21.791Z,0.83
2023-04-13T21:40:49.120Z,0.40
2023-04-13T21:43:16.943Z,0.50
2023-04-13T21:45:44.300Z,1.23
2023-04-13T21:48:11.606Z,0.50
2023-04-13T21:50:38.770Z,1.00
2023-04-13T21:53:05.977Z,0.80
2023-04-13T21:55:33.139Z,1.03
2023-04-13T21:58:00.422Z,1.33
2023-04-13T22:00:27.718Z,1.00
2023-04-13T22:02:55.606Z,1.50
2023-04-13T22:05:23.063Z,1.03
2023-04-13T22:07:50.250Z,0.80
2023-04-13T22:10:17.559Z,0.70
2023-04-13T22:12:44.809Z,2.43
2023-04-13T22:15:12.144Z,0.50
2023-04-13T22:17:39.637Z,0.50
2023-04-13T22:20:07.556Z,1.10
2023-04-13T22:22:34.814Z,1.00
2023-04-13T22:25:02.104Z,0.53
2023-04-13T22:27:29.327Z,0.53
2023-04-13T22:29:56.619Z,0.57
2023-04-13T22:32:23.968Z,1.47
2023-04-13T22:34:51.205Z,2.60
2023-04-13T22:37:18.387Z,0.50
2023-04-13T22:39:45.626Z,1.57
2023-04-13T22:42:12.876Z,1.87
2023-04-13T22:44:40.078Z,0.40
2023-04-13T22:47:07.243Z,0.73
2023-04-13T22:49:34.463Z,0.77
2023-04-13T22:52:01.738Z,1.73
2023-04-13T22:54:28.926Z,2.30
2023-04-13T22:56:56.202Z,0.70
2023-04-13T22:59:23.431Z,0.70
2023-04-13T23:01:51.071Z,0.70
2023-04-13T23:04:18.436Z,0.50
2023-04-13T23:06:46.104Z,0.40
2023-04-13T23:09:13.283Z,0.43
2023-04-13T23:11:40.484Z,0.50
2023-04-13T23:14:07.710Z,0.70
2023-04-13T23:16:35.032Z,0.70
2023-04-13T23:19:02.700Z,0.50
2023-04-13T23:21:31.239Z,0.50
2023-04-13T23:23:58.470Z,0.50
2023-04-13T23:26:27.063Z,1.67
2023-04-13T23:28:54.337Z,0.40
2023-04-13T23:31:21.584Z,0.50
2023-04-13T23:33:48.794Z,0.60
2023-04-13T23:36:16.447Z,0.87
2023-04-13T23:38:43.686Z,0.50
2023-04-13T23:41:11.175Z,0.50
2023-04-13T23:43:38.416Z,0.60
2023-04-13T23:46:05.827Z,3.03
2023-04-13T23:48:33.164Z,0.67
2023-04-13T23:51:00.357Z,0.40
2023-04-13T23:53:27.546Z,0.70
2023-04-13T23:55:54.924Z,0.93
2023-04-13T23:58:22.139Z,1.80
